createdAt,value
2022-11-12T00:00:14.705Z,10.13
2022-11-12T00:02:44.410Z,10.10
2022-11-12T00:05:14.136Z,10.04
2022-11-12T00:07:43.942Z,10.01
2022-11-12T00:10:13.736Z,9.99
2022-11-12T00:12:43.453Z,9.95
2022-11-12T00:15:16.556Z,9.94
2022-11-12T00:17:46.700Z,9.90
2022-11-12T00:20:16.419Z,9.89
2022-11-12T00:22:46.303Z,9.89
2022-11-12T00:25:16.042Z,9.88
2022-11-12T00:27:45.762Z,9.88
2022-11-12T00:30:19.758Z,9.86
2022-11-12T00:32:49.455Z,9.85
2022-11-12T00:35:19.313Z,9.84
2022-11-12T00:37:49.015Z,9.84
2022-11-12T00:40:19.271Z,9.84
2022-11-12T00:42:48.985Z,9.83
2022-11-12T00:45:21.374Z,9.80
2022-11-12T00:47:51.128Z,9.80
2022-11-12T00:50:21.170Z,9.78
2022-11-12T00:52:50.887Z,9.74
2022-11-12T00:55:20.566Z,9.72
2022-11-12T00:57:50.240Z,9.70
2022-11-12T01:00:23.051Z,9.67
2022-11-12T01:02:52.735Z,9.65
2022-11-12T01:05:22.999Z,9.65
2022-11-12T01:07:55.966Z,9.64
2022-11-12T01:10:26.139Z,9.64
2022-11-12T01:12:55.834Z,9.61
2022-11-12T01:15:28.174Z,9.60
2022-11-12T01:17:57.900Z,9.56
2022-11-12T01:20:27.645Z,9.51
2022-11-12T01:22:57.374Z,9.47
2022-11-12T01:25:27.039Z,9.45
2022-11-12T01:27:56.767Z,9.43
2022-11-12T01:30:29.140Z,9.41
2022-11-12T01:32:59.447Z,9.41
2022-11-12T01:35:29.140Z,9.37
2022-11-12T01:37:58.891Z,9.36
2022-11-12T01:40:28.662Z,9.32
2022-11-12T01:42:58.421Z,9.31
2022-11-12T01:45:30.812Z,9.21
2022-11-12T01:48:00.549Z,9.13
2022-11-12T01:50:35.048Z,9.08
2022-11-12T01:53:09.014Z,9.06
2022-11-12T01:55:40.923Z,9.04
2022-11-12T01:58:14.425Z,8.98
2022-11-12T02:00:47.028Z,8.93
2022-11-12T02:03:21.737Z,8.92
2022-11-12T02:05:56.111Z,8.92
2022-11-12T02:08:27.583Z,8.92
2022-11-12T02:10:58.762Z,8.91
2022-11-12T02:13:41.019Z,8.88
2022-11-12T02:16:14.156Z,8.88
2022-11-12T02:18:43.955Z,8.87
2022-11-12T02:21:14.033Z,8.87
2022-11-12T02:23:46.921Z,8.85
2022-11-12T02:26:16.640Z,8.84
2022-11-12T02:28:46.428Z,8.85
2022-11-12T02:31:16.120Z,8.86
2022-11-12T02:33:45.915Z,8.87
2022-11-12T02:36:15.629Z,8.86
2022-11-12T02:38:47.986Z,8.88
2022-11-12T02:41:17.852Z,8.88
2022-11-12T02:43:47.622Z,8.88
2022-11-12T02:46:17.766Z,8.89
2022-11-12T02:48:47.592Z,8.89
2022-11-12T02:51:17.511Z,8.87
2022-11-12T02:53:49.904Z,8.88
2022-11-12T02:56:19.691Z,8.86
2022-11-12T02:58:49.719Z,8.85
2022-11-12T03:01:19.463Z,8.84
2022-11-12T03:03:50.456Z,8.82
2022-11-12T03:06:20.191Z,8.81
2022-11-12T03:08:52.686Z,8.83
2022-11-12T03:11:22.384Z,8.83
2022-11-12T03:13:52.113Z,8.84
2022-11-12T03:16:21.792Z,8.81
2022-11-12T03:18:51.534Z,8.81
2022-11-12T03:21:21.285Z,8.82
2022-11-12T03:23:54.916Z,8.82
2022-11-12T03:26:24.662Z,8.80
2022-11-12T03:28:54.599Z,8.80
2022-11-12T03:31:24.345Z,8.78
2022-11-12T03:33:54.063Z,8.77
2022-11-12T03:36:23.871Z,8.74
2022-11-12T03:38:56.204Z,8.73
2022-11-12T03:41:25.938Z,8.73
2022-11-12T03:43:55.660Z,8.71
2022-11-12T03:46:25.319Z,8.70
2022-11-12T03:48:55.004Z,8.69
2022-11-12T03:51:24.711Z,8.66
2022-11-12T03:53:57.051Z,8.64
2022-11-12T03:56:26.764Z,8.65
2022-11-12T03:58:56.457Z,8.65
2022-11-12T04:01:26.230Z,8.64
2022-11-12T04:03:55.977Z,8.65
2022-11-12T04:06:38.456Z,8.66
2022-11-12T04:09:10.796Z,8.66
2022-11-12T04:11:40.494Z,8.66
2022-11-12T04:14:10.212Z,8.68
2022-11-12T04:16:52.346Z,8.71
2022-11-12T04:19:34.435Z,8.70
2022-11-12T04:22:06.945Z,8.71
2022-11-12T04:24:53.662Z,8.74
2022-11-12T04:27:25.928Z,8.76
2022-11-12T04:30:08.655Z,8.78
2022-11-12T04:32:40.323Z,8.79
2022-11-12T04:35:11.888Z,8.81
2022-11-12T04:37:48.639Z,8.82
2022-11-12T04:40:47.531Z,8.86
2022-11-12T04:43:31.554Z,8.91
2022-11-12T04:46:02.780Z,8.95
2022-11-12T04:48:32.883Z,8.99
2022-11-12T04:51:24.399Z,9.02
2022-11-12T04:53:54.108Z,9.06
2022-11-12T04:56:26.408Z,9.09
2022-11-12T04:58:56.101Z,9.13
2022-11-12T05:01:25.858Z,9.17
2022-11-12T05:03:56.010Z,9.19
2022-11-12T05:06:38.181Z,9.19
2022-11-12T05:09:07.895Z,9.22
2022-11-12T05:11:40.220Z,9.25
2022-11-12T05:14:09.916Z,9.27
2022-11-12T05:16:39.861Z,9.30
2022-11-12T05:19:10.034Z,9.32
2022-11-12T05:21:52.146Z,9.31
2022-11-12T05:24:40.368Z,9.33
2022-11-12T05:27:16.099Z,9.37
2022-11-12T05:29:46.464Z,9.39
2022-11-12T05:32:18.691Z,9.41
2022-11-12T05:34:48.427Z,9.41
2022-11-12T05:37:18.585Z,9.41
2022-11-12T05:39:48.286Z,9.41
2022-11-12T05:42:20.602Z,9.41
2022-11-12T05:44:50.308Z,9.42
2022-11-12T05:47:20.025Z,9.42
2022-11-12T05:49:49.766Z,9.41
2022-11-12T05:52:19.436Z,9.38
2022-11-12T05:54:49.136Z,9.39
2022-11-12T05:57:21.432Z,9.40
2022-11-12T05:59:51.141Z,9.39
2022-11-12T06:02:20.856Z,9.38
2022-11-12T06:04:50.578Z,9.38
2022-11-12T06:07:20.358Z,9.39
2022-11-12T06:09:50.079Z,9.39
2022-11-12T06:12:22.416Z,9.39
2022-11-12T06:14:52.112Z,9.43
2022-11-12T06:17:21.880Z,9.43
2022-11-12T06:19:51.607Z,9.44
2022-11-12T06:22:21.293Z,9.47
2022-11-12T06:24:50.976Z,9.47
2022-11-12T06:27:24.184Z,9.48
2022-11-12T06:29:54.226Z,9.49
2022-11-12T06:32:24.147Z,9.50
2022-11-12T06:34:53.899Z,9.52
2022-11-12T06:37:24.079Z,9.53
2022-11-12T06:39:53.929Z,9.56
2022-11-12T06:42:26.321Z,9.58
2022-11-12T06:44:56.052Z,9.59
2022-11-12T06:47:25.717Z,9.62
2022-11-12T06:49:55.411Z,9.63
2022-11-12T06:52:25.128Z,9.65
2022-11-12T06:54:54.813Z,9.66
2022-11-12T06:57:27.175Z,9.66
2022-11-12T06:59:56.867Z,9.67
2022-11-12T07:02:26.547Z,9.66
2022-11-12T07:04:56.286Z,9.67
2022-11-12T07:07:26.042Z,9.69
2022-11-12T07:09:55.795Z,9.70
2022-11-12T07:12:28.144Z,9.71
2022-11-12T07:14:57.829Z,9.69
2022-11-12T07:17:27.556Z,9.72
2022-11-12T07:20:02.367Z,9.72
2022-11-12T07:22:35.371Z,9.71
2022-11-12T07:25:05.093Z,9.71
2022-11-12T07:27:37.427Z,9.70
2022-11-12T07:30:08.679Z,9.72
2022-11-12T07:32:44.000Z,9.70
2022-11-12T07:35:15.739Z,9.71
2022-11-12T07:37:45.404Z,9.72
2022-11-12T07:40:15.593Z,9.71
2022-11-12T07:42:48.299Z,9.69
2022-11-12T07:45:18.239Z,9.69
2022-11-12T07:47:47.956Z,9.68
2022-11-12T07:50:18.082Z,9.69
2022-11-12T07:52:47.815Z,9.68
2022-11-12T07:55:17.731Z,9.66
2022-11-12T07:57:50.232Z,9.64
2022-11-12T08:00:21.276Z,9.65
2022-11-12T08:02:50.981Z,9.65
2022-11-12T08:05:21.646Z,9.64
2022-11-12T08:07:51.537Z,9.61
2022-11-12T08:10:21.514Z,9.57
2022-11-12T08:12:54.070Z,9.56
2022-11-12T08:15:23.757Z,9.55
2022-11-12T08:17:53.531Z,9.53
2022-11-12T08:20:23.220Z,9.53
2022-11-12T08:22:53.338Z,9.53
2022-11-12T08:25:23.001Z,9.52
2022-11-12T08:27:59.180Z,9.50
2022-11-12T08:30:29.439Z,9.49
2022-11-12T08:33:00.606Z,9.50
2022-11-12T08:35:31.719Z,9.49
2022-11-12T08:38:02.380Z,9.52
2022-11-12T08:40:34.244Z,9.54
2022-11-12T08:43:09.168Z,9.57
2022-11-12T08:45:40.921Z,9.58
2022-11-12T08:48:14.034Z,9.60
2022-11-12T08:50:44.460Z,9.62
2022-11-12T08:53:16.305Z,9.64
2022-11-12T08:55:46.039Z,9.64
2022-11-12T08:58:18.546Z,9.65
2022-11-12T09:00:49.984Z,9.67
2022-11-12T09:03:21.527Z,9.70
2022-11-12T09:05:53.708Z,9.71
2022-11-12T09:08:26.156Z,9.72
2022-11-12T09:10:56.359Z,9.72
2022-11-12T09:13:31.235Z,9.75
2022-11-12T09:16:05.424Z,9.74
2022-11-12T09:18:36.477Z,9.77
2022-11-12T09:21:08.502Z,9.80
2022-11-12T09:23:40.404Z,9.82
2022-11-12T09:26:10.668Z,9.85
2022-11-12T09:28:43.151Z,9.87
2022-11-12T09:31:12.988Z,9.88
2022-11-12T09:33:42.691Z,9.89
2022-11-12T09:36:12.859Z,9.89
2022-11-12T09:38:42.593Z,9.89
2022-11-12T09:41:21.953Z,9.91
2022-11-12T09:43:56.319Z,9.92
2022-11-12T09:46:37.012Z,9.94
2022-11-12T09:49:14.690Z,9.94
2022-11-12T09:51:50.658Z,9.93
2022-11-12T09:54:27.448Z,9.96
2022-11-12T09:56:57.870Z,10.00
2022-11-12T09:59:34.781Z,10.02
2022-11-12T10:02:23.823Z,10.07
2022-11-12T10:05:13.080Z,10.09
2022-11-12T10:07:55.823Z,10.11
2022-11-12T10:10:37.933Z,10.14
2022-11-12T10:13:22.279Z,10.16
2022-11-12T10:16:22.436Z,10.21
2022-11-12T10:19:07.150Z,10.26
2022-11-12T10:21:43.773Z,10.29
2022-11-12T10:24:15.147Z,10.30
2022-11-12T10:26:44.983Z,10.33
2022-11-12T10:29:21.379Z,10.37
2022-11-12T10:31:53.720Z,10.40
2022-11-12T10:34:25.522Z,10.43
2022-11-12T10:37:00.099Z,10.49
2022-11-12T10:39:38.637Z,10.52
2022-11-12T10:42:11.125Z,10.54
2022-11-12T10:44:42.561Z,10.55
2022-11-12T10:47:34.617Z,10.58
2022-11-12T10:50:20.835Z,10.61
2022-11-12T10:52:59.500Z,10.63
2022-11-12T10:55:31.171Z,10.66
2022-11-12T10:58:24.999Z,10.67
2022-11-12T11:01:01.030Z,10.66
2022-11-12T11:03:37.546Z,10.68
2022-11-12T11:06:09.396Z,10.68
2022-11-12T11:08:45.316Z,10.69
2022-11-12T11:11:22.675Z,10.71
2022-11-12T11:13:55.831Z,10.72
2022-11-12T11:16:28.022Z,10.76
2022-11-12T11:19:02.702Z,10.75
2022-11-12T11:21:46.069Z,10.74
2022-11-12T11:24:30.996Z,10.75
2022-11-12T11:27:06.934Z,10.76
2022-11-12T11:29:52.428Z,10.78
2022-11-12T11:32:37.399Z,10.76
2022-11-12T11:35:20.653Z,10.76
2022-11-12T11:38:01.329Z,10.74
2022-11-12T11:40:34.806Z,10.72
2022-11-12T11:43:21.276Z,10.72
2022-11-12T11:46:08.787Z,10.73
2022-11-12T11:48:51.973Z,10.70
2022-11-12T11:51:47.093Z,10.72
2022-11-12T11:54:38.100Z,10.72
2022-11-12T11:57:14.502Z,10.73
2022-11-12T11:59:55.972Z,10.75
2022-11-12T12:02:42.233Z,10.76
2022-11-12T12:05:30.040Z,10.77
2022-11-12T12:08:07.097Z,10.79
2022-11-12T12:13:55.871Z,10.80
2022-11-12T12:16:37.437Z,10.82
2022-11-12T12:19:15.970Z,10.86
2022-11-12T12:21:52.707Z,10.89
2022-11-12T12:24:29.730Z,10.92
2022-11-12T12:27:04.402Z,10.92
2022-11-12T12:29:42.171Z,10.93
2022-11-12T12:32:23.097Z,10.96
2022-11-12T12:34:59.268Z,10.98
2022-11-12T12:37:38.784Z,10.99
2022-11-12T12:40:19.113Z,11.01
2022-11-12T12:42:55.452Z,11.03
2022-11-12T12:45:39.808Z,11.05
2022-11-12T12:48:23.535Z,11.05
2022-11-12T12:50:55.440Z,11.05
2022-11-12T12:53:38.615Z,11.05
2022-11-12T12:56:50.243Z,11.06
2022-11-12T12:59:23.962Z,11.05
2022-11-12T13:02:00.554Z,11.06
2022-11-12T13:04:55.865Z,11.05
2022-11-12T13:07:43.449Z,11.04
2022-11-12T13:10:56.182Z,11.03
2022-11-12T13:13:41.046Z,11.02
2022-11-12T13:16:11.006Z,11.02
2022-11-12T13:19:03.057Z,11.03
2022-11-12T13:21:33.401Z,11.01
2022-11-12T13:24:11.222Z,11.01
2022-11-12T13:26:48.069Z,11.01
2022-11-12T13:29:47.606Z,11.02
2022-11-12T13:32:39.547Z,11.05
2022-11-12T13:35:29.309Z,11.05
2022-11-12T13:38:02.175Z,11.08
2022-11-12T13:40:45.007Z,11.10
2022-11-12T13:43:38.438Z,11.13
2022-11-12T13:46:28.108Z,11.14
2022-11-12T13:49:03.236Z,11.11
2022-11-12T13:51:43.094Z,11.12
2022-11-12T13:54:35.391Z,11.14
2022-11-12T13:57:33.259Z,11.15
2022-11-12T14:00:22.883Z,11.15
2022-11-12T14:02:57.420Z,11.13
2022-11-12T14:05:29.516Z,11.12
2022-11-12T14:08:16.752Z,11.13
2022-11-12T14:10:58.392Z,11.14
2022-11-12T14:13:46.671Z,11.17
2022-11-12T14:16:36.968Z,11.19
2022-11-12T14:19:26.959Z,11.20
2022-11-12T14:22:04.223Z,11.23
2022-11-12T14:24:35.873Z,11.25
2022-11-12T14:27:05.607Z,11.29
2022-11-12T14:29:38.809Z,11.31
2022-11-12T14:32:12.146Z,11.32
2022-11-12T14:34:44.470Z,11.31
2022-11-12T14:37:41.662Z,11.32
2022-11-12T14:40:19.431Z,11.30
2022-11-12T14:42:49.516Z,11.27
2022-11-12T14:45:20.913Z,11.27
2022-11-12T14:47:52.770Z,11.27
2022-11-12T14:50:28.832Z,11.28
2022-11-12T14:53:02.538Z,11.27
2022-11-12T14:55:35.185Z,11.27
2022-11-12T14:58:05.979Z,11.25
2022-11-12T15:00:44.854Z,11.26
2022-11-12T15:03:20.435Z,11.26
2022-11-12T15:06:02.696Z,11.24
2022-11-12T15:08:35.616Z,11.21
2022-11-12T15:11:23.472Z,11.21
2022-11-12T15:13:54.504Z,11.19
2022-11-12T15:16:27.307Z,11.14
2022-11-12T15:19:19.240Z,11.11
2022-11-12T15:21:53.557Z,11.07
2022-11-12T15:24:29.681Z,11.01
2022-11-12T15:27:01.312Z,10.95
2022-11-12T15:29:34.141Z,10.93
2022-11-12T15:32:08.645Z,10.92
2022-11-12T15:34:50.610Z,10.92
2022-11-12T15:37:28.899Z,10.91
2022-11-12T15:40:02.228Z,10.90
2022-11-12T15:42:36.894Z,10.88
2022-11-12T15:45:16.188Z,10.86
2022-11-12T15:47:46.291Z,10.85
2022-11-12T15:50:20.426Z,10.83
2022-11-12T15:52:53.387Z,10.80
2022-11-12T15:55:23.172Z,10.76
2022-11-12T15:57:55.129Z,10.72
2022-11-12T16:00:27.459Z,10.69
2022-11-12T16:03:00.424Z,10.64
2022-11-12T16:05:30.131Z,10.53
2022-11-12T16:08:02.616Z,10.40
2022-11-12T16:10:32.416Z,10.28
2022-11-12T16:13:03.741Z,10.20
2022-11-12T16:15:33.704Z,10.13
2022-11-12T16:18:03.440Z,10.06
2022-11-12T16:20:35.042Z,10.02
2022-11-12T16:23:07.495Z,9.97
2022-11-12T16:25:39.968Z,9.95
2022-11-12T16:28:16.055Z,9.92
2022-11-12T16:30:46.716Z,9.90
2022-11-12T16:33:17.230Z,9.89
2022-11-12T16:35:47.027Z,9.88
2022-11-12T16:38:21.552Z,9.86
2022-11-12T16:40:51.305Z,9.82
2022-11-12T16:43:21.027Z,9.79
2022-11-12T16:45:50.731Z,9.73
2022-11-12T16:48:22.649Z,9.69
2022-11-12T16:50:52.641Z,9.68
2022-11-12T16:53:25.154Z,9.69
2022-11-12T16:55:55.199Z,9.67
2022-11-12T16:58:24.879Z,9.68
2022-11-12T17:00:55.698Z,9.68
2022-11-12T17:03:25.639Z,9.68
2022-11-12T17:05:55.946Z,9.67
2022-11-12T17:08:33.770Z,9.66
2022-11-12T17:11:10.066Z,9.64
2022-11-12T17:13:41.190Z,9.64
2022-11-12T17:16:11.651Z,9.65
2022-11-12T17:18:41.574Z,9.66
2022-11-12T17:21:13.440Z,9.68
2022-11-12T17:23:45.876Z,9.71
2022-11-12T17:26:16.855Z,9.67
2022-11-12T17:28:46.743Z,9.64
2022-11-12T17:31:18.535Z,9.61
2022-11-12T17:33:50.036Z,9.60
2022-11-12T17:36:22.091Z,9.62
2022-11-12T17:38:57.095Z,9.64
2022-11-12T17:41:28.498Z,9.65
2022-11-12T17:43:58.931Z,9.64
2022-11-12T17:46:29.763Z,9.59
2022-11-12T17:48:59.737Z,9.56
2022-11-12T17:51:31.089Z,9.55
2022-11-12T17:54:03.397Z,9.56
2022-11-12T17:56:36.898Z,9.59
2022-11-12T17:59:07.569Z,9.61
2022-11-12T18:01:38.063Z,9.63
2022-11-12T18:04:08.024Z,9.63
2022-11-12T18:06:37.939Z,9.63
2022-11-12T18:09:15.473Z,9.64
2022-11-12T18:11:48.312Z,9.63
2022-11-12T18:14:19.056Z,9.61
2022-11-12T18:16:48.985Z,9.61
2022-11-12T18:19:18.695Z,9.60
2022-11-12T18:21:48.561Z,9.58
2022-11-12T18:24:20.842Z,9.55
2022-11-12T18:26:50.681Z,9.54
2022-11-12T18:29:20.412Z,9.54
2022-11-12T18:31:51.193Z,9.52
2022-11-12T18:34:20.901Z,9.52
2022-11-12T18:36:50.570Z,9.50
2022-11-12T18:39:22.907Z,9.49
2022-11-12T18:41:52.703Z,9.46
2022-11-12T18:44:26.055Z,9.46
2022-11-12T18:46:56.015Z,9.44
2022-11-12T18:49:25.886Z,9.42
2022-11-12T18:51:55.894Z,9.42
2022-11-12T18:54:28.185Z,9.41
2022-11-12T18:56:57.912Z,9.39
2022-11-12T18:59:30.825Z,9.38
2022-11-12T19:02:00.967Z,9.37
2022-11-12T19:04:30.990Z,9.35
2022-11-12T19:07:00.787Z,9.34
2022-11-12T19:09:33.124Z,9.32
2022-11-12T19:12:02.859Z,9.28
2022-11-12T19:14:33.019Z,9.28
2022-11-12T19:17:02.726Z,9.26
2022-11-12T19:19:32.447Z,9.24
2022-11-12T19:22:02.176Z,9.23
2022-11-12T19:24:34.488Z,9.22
2022-11-12T19:27:04.213Z,9.20
2022-11-12T19:29:33.923Z,9.18
2022-11-12T19:32:03.613Z,9.16
2022-11-12T19:34:33.350Z,9.14
2022-11-12T19:37:31.821Z,9.12
2022-11-12T19:39:55.352Z,9.11
2022-11-12T19:42:25.120Z,9.09
2022-11-12T19:44:54.839Z,9.08
2022-11-12T19:47:24.564Z,9.06
2022-11-12T19:49:54.260Z,9.03
2022-11-12T19:52:24.624Z,9.02
2022-11-12T19:54:56.924Z,9.01
2022-11-12T19:57:27.881Z,8.99
2022-11-12T19:59:57.656Z,8.98
2022-11-12T20:02:27.472Z,8.95
2022-11-12T20:04:57.251Z,8.93
2022-11-12T20:07:27.015Z,8.89
2022-11-12T20:10:01.129Z,8.87
2022-11-12T20:12:32.437Z,8.86
2022-11-12T20:15:02.173Z,8.84
2022-11-12T20:17:34.802Z,8.84
2022-11-12T20:20:04.658Z,8.84
2022-11-12T20:22:34.640Z,8.82
2022-11-12T20:25:07.467Z,8.81
2022-11-12T20:27:37.197Z,8.81
2022-11-12T20:30:08.256Z,8.81
2022-11-12T20:32:37.971Z,8.81
2022-11-12T20:35:15.290Z,8.81
2022-11-12T20:37:53.308Z,8.80
2022-11-12T20:40:25.631Z,8.80
2022-11-12T20:42:55.404Z,8.80
2022-11-12T20:45:25.209Z,8.80
2022-11-12T20:47:54.908Z,8.79
2022-11-12T20:50:25.034Z,8.80
2022-11-12T20:52:54.725Z,8.79
2022-11-12T20:55:27.209Z,8.79
2022-11-12T20:57:56.915Z,8.78
2022-11-12T21:00:26.662Z,8.78
2022-11-12T21:02:56.356Z,8.77
2022-11-12T21:05:26.240Z,8.77
2022-11-12T21:07:58.350Z,8.79
2022-11-12T21:10:30.721Z,8.77
2022-11-12T21:13:00.391Z,8.75
2022-11-12T21:15:30.272Z,8.75
2022-11-12T21:17:59.987Z,8.74
2022-11-12T21:20:29.689Z,8.75
2022-11-12T21:23:00.287Z,8.76
2022-11-12T21:25:32.587Z,8.76
2022-11-12T21:28:02.296Z,8.78
2022-11-12T21:30:32.113Z,8.79
2022-11-12T21:33:02.458Z,8.79
2022-11-12T21:35:32.182Z,8.80
2022-11-12T21:38:01.884Z,8.80
2022-11-12T21:40:34.193Z,8.79
2022-11-12T21:43:07.271Z,8.78
2022-11-12T21:45:37.019Z,8.79
2022-11-12T21:48:07.191Z,8.79
2022-11-12T21:50:36.872Z,8.78
2022-11-12T21:53:06.619Z,8.77
2022-11-12T21:55:38.940Z,8.74
2022-11-12T21:58:08.706Z,8.73
2022-11-12T22:00:42.730Z,8.72
2022-11-12T22:03:12.704Z,8.72
2022-11-12T22:05:42.459Z,8.73
2022-11-12T22:08:12.207Z,8.72
2022-11-12T22:10:44.518Z,8.73
2022-11-12T22:13:26.914Z,8.72
2022-11-12T22:15:57.196Z,8.71
2022-11-12T22:18:27.253Z,8.71
2022-11-12T22:21:01.060Z,8.71
2022-11-12T22:23:32.992Z,8.71
2022-11-12T22:26:07.051Z,8.70
2022-11-12T22:28:37.086Z,8.71
2022-11-12T22:31:07.806Z,8.70
2022-11-12T22:33:37.783Z,8.69
2022-11-12T22:36:09.811Z,8.70
2022-11-12T22:38:41.287Z,8.70
2022-11-12T22:41:15.443Z,8.69
2022-11-12T22:43:45.263Z,8.66
2022-11-12T22:46:17.096Z,8.65
2022-11-12T22:48:47.192Z,8.64
2022-11-12T22:51:18.884Z,8.64
2022-11-12T22:53:48.875Z,8.63
2022-11-12T22:56:21.190Z,8.64
2022-11-12T22:58:51.475Z,8.64
2022-11-12T23:01:23.786Z,8.65
2022-11-12T23:03:54.828Z,8.65
2022-11-12T23:06:25.251Z,8.66
2022-11-12T23:08:56.638Z,8.63
2022-11-12T23:11:29.674Z,8.64
2022-11-12T23:13:59.687Z,8.63
2022-11-12T23:16:33.224Z,8.63
2022-11-12T23:19:02.931Z,8.60
2022-11-12T23:21:33.098Z,8.59
2022-11-12T23:24:02.923Z,8.57
2022-11-12T23:26:35.251Z,8.56
2022-11-12T23:29:04.922Z,8.54
2022-11-12T23:31:35.088Z,8.53
2022-11-12T23:34:04.819Z,8.51
2022-11-12T23:36:34.994Z,8.50
2022-11-12T23:39:04.695Z,8.48
2022-11-12T23:41:37.044Z,8.47
2022-11-12T23:44:06.808Z,8.44
2022-11-12T23:46:36.492Z,8.43
2022-11-12T23:49:06.230Z,8.42
2022-11-12T23:51:35.963Z,8.42
2022-11-12T23:54:06.843Z,8.39
2022-11-12T23:56:39.218Z,8.40
2022-11-12T23:59:08.960Z,8.40
